createdAt,value
2023-05-25T00:00:21.069Z,75.90
2023-05-25T00:03:08.628Z,75.70
2023-05-25T00:05:56.328Z,76.20
2023-05-25T00:08:43.663Z,75.70
2023-05-25T00:11:30.616Z,75.70
2023-05-25T00:14:19.068Z,75.60
2023-05-25T00:17:10.348Z,75.80
2023-05-25T00:19:58.955Z,76.00
2023-05-25T00:22:46.114Z,76.20
2023-05-25T00:25:33.552Z,76.40
2023-05-25T00:28:20.899Z,76.60
2023-05-25T00:31:09.862Z,76.60
2023-05-25T00:33:57.365Z,76.80
2023-05-25T00:36:48.474Z,77.20
2023-05-25T00:39:35.315Z,77.50
2023-05-25T00:42:22.508Z,77.20
2023-05-25T00:45:10.128Z,77.20
2023-05-25T00:48:00.506Z,77.30
2023-05-25T00:50:47.865Z,77.40
2023-05-25T00:53:37.478Z,77.60
2023-05-25T00:56:31.703Z,77.60
2023-05-25T00:59:28.157Z,77.80
2023-05-25T01:02:17.491Z,78.10
2023-05-25T01:05:10.254Z,77.80
2023-05-25T01:08:02.088Z,78.30
2023-05-25T01:10:51.000Z,78.30
2023-05-25T01:13:39.286Z,78.30
2023-05-25T01:16:27.307Z,78.30
2023-05-25T01:19:14.623Z,78.60
2023-05-25T01:22:07.537Z,78.80
2023-05-25T01:24:57.536Z,79.00
2023-05-25T01:27:48.706Z,79.20
2023-05-25T01:30:39.183Z,79.40
2023-05-25T01:33:27.119Z,79.90
2023-05-25T01:36:14.859Z,80.10
2023-05-25T01:39:03.870Z,80.30
2023-05-25T01:41:51.630Z,80.50
2023-05-25T01:44:39.863Z,80.90
2023-05-25T01:47:34.264Z,81.00
2023-05-25T01:50:25.661Z,81.20
2023-05-25T01:53:20.413Z,81.40
2023-05-25T01:56:12.025Z,81.60
2023-05-25T01:59:02.525Z,81.90
2023-05-25T02:01:53.473Z,82.00
2023-05-25T02:04:40.897Z,82.40
2023-05-25T02:07:28.090Z,82.80
2023-05-25T02:10:15.588Z,83.10
2023-05-25T02:15:52.464Z,83.10
2023-05-25T02:18:40.060Z,84.30
2023-05-25T02:21:26.949Z,84.80
2023-05-25T02:24:14.055Z,85.40
2023-05-25T02:27:01.934Z,85.90
2023-05-25T02:29:50.734Z,86.30
2023-05-25T02:32:37.654Z,86.80
2023-05-25T02:35:24.696Z,87.40
2023-05-25T02:38:11.885Z,87.70
2023-05-25T02:40:59.082Z,88.00
2023-05-25T02:43:46.349Z,88.70
2023-05-25T02:46:34.955Z,88.60
2023-05-25T02:49:22.178Z,89.00
2023-05-25T02:52:09.205Z,89.40
2023-05-25T02:54:56.039Z,89.80
2023-05-25T02:57:52.208Z,90.00
2023-05-25T03:00:56.466Z,90.30
2023-05-25T03:03:46.234Z,90.50
2023-05-25T03:06:33.601Z,90.80
2023-05-25T03:09:28.295Z,90.80
2023-05-25T03:12:15.342Z,91.00
2023-05-25T03:15:03.124Z,91.00
2023-05-25T03:17:50.354Z,91.20
2023-05-25T03:20:39.019Z,91.40
2023-05-25T03:23:26.322Z,91.40
2023-05-25T03:26:17.825Z,91.50
2023-05-25T03:29:07.217Z,91.60
2023-05-25T03:31:54.849Z,91.70
2023-05-25T03:34:45.693Z,91.80
2023-05-25T03:37:37.615Z,91.80
2023-05-25T03:40:25.442Z,91.80
2023-05-25T03:43:12.341Z,91.80
2023-05-25T03:45:59.886Z,91.80
2023-05-25T03:48:47.119Z,91.80
2023-05-25T03:51:34.292Z,91.70
2023-05-25T03:54:23.050Z,91.70
2023-05-25T03:57:10.540Z,91.70
2023-05-25T03:59:57.859Z,91.70
2023-05-25T04:02:44.926Z,91.70
2023-05-25T04:05:32.081Z,91.70
2023-05-25T04:08:22.484Z,91.70
2023-05-25T04:11:10.779Z,91.70
2023-05-25T04:13:57.635Z,91.70
2023-05-25T04:16:47.356Z,91.80
2023-05-25T04:19:36.292Z,91.70
2023-05-25T04:22:23.212Z,91.70
2023-05-25T04:25:11.044Z,91.70
2023-05-25T04:27:59.506Z,91.70
2023-05-25T04:31:06.357Z,91.60
2023-05-25T04:33:59.223Z,91.60
2023-05-25T04:37:09.230Z,91.60
2023-05-25T04:39:58.721Z,91.60
2023-05-25T04:42:48.277Z,91.40
2023-05-25T04:45:37.144Z,91.40
2023-05-25T04:48:25.308Z,91.40
2023-05-25T04:51:12.868Z,91.30
2023-05-25T04:54:00.704Z,91.20
2023-05-25T04:56:48.335Z,91.10
2023-05-25T04:59:35.475Z,91.10
2023-05-25T05:02:25.845Z,91.00
2023-05-25T05:05:13.727Z,91.00
2023-05-25T05:08:01.417Z,91.00
2023-05-25T05:10:48.734Z,91.10
2023-05-25T05:13:36.177Z,91.00
2023-05-25T05:16:24.674Z,91.10
2023-05-25T05:19:13.134Z,91.00
2023-05-25T05:22:01.347Z,91.10
2023-05-25T05:24:49.831Z,91.20
2023-05-25T05:27:42.813Z,91.10
2023-05-25T05:30:37.335Z,91.00
2023-05-25T05:33:24.389Z,91.10
2023-05-25T05:36:13.310Z,91.10
2023-05-25T05:39:01.049Z,91.10
2023-05-25T05:41:49.197Z,91.00
2023-05-25T05:44:36.334Z,91.00
2023-05-25T05:47:23.609Z,91.10
2023-05-25T05:50:12.178Z,91.10
2023-05-25T05:53:02.559Z,91.20
2023-05-25T05:55:56.116Z,91.00
2023-05-25T05:58:44.311Z,91.00
2023-05-25T06:01:31.676Z,91.00
2023-05-25T06:04:20.073Z,91.00
2023-05-25T06:07:07.420Z,91.00
2023-05-25T06:09:57.982Z,91.10
2023-05-25T06:12:45.136Z,91.10
2023-05-25T06:15:32.696Z,91.00
2023-05-25T06:18:21.588Z,91.00
2023-05-25T06:21:10.233Z,91.00
2023-05-25T06:23:58.525Z,90.90
2023-05-25T06:26:46.947Z,90.80
2023-05-25T06:29:35.399Z,90.70
2023-05-25T06:32:22.827Z,90.60
2023-05-25T06:35:14.727Z,90.60
2023-05-25T06:38:01.841Z,90.50
2023-05-25T06:40:49.752Z,90.40
2023-05-25T06:43:39.638Z,90.30
2023-05-25T06:46:38.999Z,90.20
2023-05-25T06:49:26.601Z,90.20
2023-05-25T06:52:13.793Z,90.20
2023-05-25T06:55:01.104Z,90.20
2023-05-25T06:57:48.393Z,90.00
2023-05-25T07:00:37.062Z,89.90
2023-05-25T07:03:23.985Z,90.00
2023-05-25T07:06:12.317Z,90.00
2023-05-25T07:08:59.576Z,90.20
2023-05-25T07:11:46.464Z,90.10
2023-05-25T07:14:33.540Z,90.20
2023-05-25T07:17:22.032Z,90.00
2023-05-25T07:20:10.686Z,90.00
2023-05-25T07:22:57.771Z,90.00
2023-05-25T07:25:45.958Z,89.80
2023-05-25T07:28:33.423Z,89.80
2023-05-25T07:31:20.592Z,90.00
2023-05-25T07:34:09.077Z,90.00
2023-05-25T07:36:56.217Z,89.60
2023-05-25T07:39:43.518Z,89.20
2023-05-25T07:42:34.382Z,89.00
2023-05-25T07:45:22.086Z,89.20
2023-05-25T07:48:09.857Z,88.80
2023-05-25T07:50:58.104Z,88.70
2023-05-25T07:53:45.405Z,88.10
2023-05-25T07:56:32.136Z,87.80
2023-05-25T07:59:19.474Z,87.70
2023-05-25T08:02:06.896Z,87.50
2023-05-25T08:04:54.451Z,90.00
2023-05-25T08:07:43.192Z,87.40
2023-05-25T08:10:32.311Z,86.90
2023-05-25T08:13:19.825Z,90.90
2023-05-25T08:16:07.065Z,86.40
2023-05-25T08:18:54.089Z,86.00
2023-05-25T08:21:42.620Z,85.70
2023-05-25T08:24:30.820Z,85.90
2023-05-25T08:27:17.798Z,85.10
2023-05-25T08:30:08.254Z,85.30
2023-05-25T08:32:55.620Z,85.40
2023-05-25T08:35:43.347Z,85.50
2023-05-25T08:38:31.563Z,85.30
2023-05-25T08:41:21.432Z,85.30
2023-05-25T08:44:09.094Z,84.70
2023-05-25T08:46:58.433Z,84.70
2023-05-25T08:49:46.811Z,85.10
2023-05-25T08:52:36.887Z,85.20
2023-05-25T08:55:28.083Z,84.60
2023-05-25T08:58:21.844Z,84.60
2023-05-25T09:01:12.176Z,84.40
2023-05-25T09:04:02.485Z,84.50
2023-05-25T09:07:02.056Z,84.40
2023-05-25T09:09:57.177Z,84.50
2023-05-25T09:12:44.703Z,84.60
2023-05-25T09:15:33.953Z,84.20
2023-05-25T09:18:21.082Z,83.80
2023-05-25T09:21:07.862Z,83.70
2023-05-25T09:23:55.313Z,83.10
2023-05-25T09:26:45.386Z,83.00
2023-05-25T09:29:34.823Z,82.70
2023-05-25T09:32:24.351Z,82.60
2023-05-25T09:35:13.816Z,82.50
2023-05-25T09:38:01.502Z,82.40
2023-05-25T09:40:48.993Z,82.50
2023-05-25T09:43:41.756Z,82.30
2023-05-25T09:46:38.030Z,82.40
2023-05-25T09:49:27.746Z,82.40
2023-05-25T09:52:17.678Z,81.70
2023-05-25T09:55:05.031Z,81.60
2023-05-25T09:57:54.793Z,81.70
2023-05-25T10:00:42.296Z,81.60
2023-05-25T10:03:29.429Z,82.10
2023-05-25T10:06:18.066Z,81.70
2023-05-25T10:09:07.613Z,82.60
2023-05-25T10:11:57.880Z,81.90
2023-05-25T10:14:47.600Z,81.30
2023-05-25T10:17:37.193Z,80.80
2023-05-25T10:20:28.270Z,80.30
2023-05-25T10:23:21.502Z,80.00
2023-05-25T10:26:10.234Z,80.70
2023-05-25T10:29:02.290Z,80.50
2023-05-25T10:31:49.913Z,80.30
2023-05-25T10:34:37.281Z,79.90
2023-05-25T10:37:27.532Z,80.00
2023-05-25T10:40:16.880Z,80.10
2023-05-25T10:43:04.890Z,79.70
2023-05-25T10:45:51.813Z,79.00
2023-05-25T10:48:39.805Z,78.50
2023-05-25T10:51:39.057Z,77.90
2023-05-25T10:54:31.077Z,77.80
2023-05-25T10:57:25.795Z,77.60
2023-05-25T11:00:15.692Z,77.20
2023-05-25T11:03:03.557Z,77.40
2023-05-25T11:05:52.512Z,76.80
2023-05-25T11:08:51.546Z,76.80
2023-05-25T11:12:08.826Z,77.20
2023-05-25T11:15:15.572Z,77.10
2023-05-25T11:18:03.453Z,77.50
2023-05-25T11:20:51.730Z,77.90
2023-05-25T11:23:53.642Z,77.10
2023-05-25T11:26:55.079Z,76.40
2023-05-25T11:29:42.939Z,76.80
2023-05-25T11:32:31.301Z,77.00
2023-05-25T11:35:18.341Z,76.80
2023-05-25T11:38:08.482Z,76.40
2023-05-25T11:40:56.076Z,75.60
2023-05-25T11:43:43.471Z,76.20
2023-05-25T11:46:31.309Z,75.60
2023-05-25T11:49:23.010Z,82.50
2023-05-25T11:52:11.128Z,80.60
2023-05-25T11:54:58.584Z,81.30
2023-05-25T11:57:46.016Z,78.40
2023-05-25T12:00:33.088Z,75.00
2023-05-25T12:03:35.011Z,83.50
2023-05-25T12:06:28.364Z,82.50
2023-05-25T12:09:20.124Z,72.30
2023-05-25T12:12:08.217Z,70.90
2023-05-25T12:14:57.074Z,70.80
2023-05-25T12:17:45.429Z,70.40
2023-05-25T12:20:33.247Z,69.80
2023-05-25T12:23:21.820Z,69.30
2023-05-25T12:26:12.486Z,68.70
2023-05-25T12:29:01.158Z,69.40
2023-05-25T12:31:48.236Z,69.60
2023-05-25T12:34:35.846Z,70.50
2023-05-25T12:37:23.823Z,71.20
2023-05-25T12:40:21.366Z,72.10
2023-05-25T12:43:08.843Z,71.80
2023-05-25T12:45:56.217Z,73.20
2023-05-25T12:48:43.121Z,75.10
2023-05-25T12:51:39.659Z,77.00
2023-05-25T12:54:44.836Z,78.30
2023-05-25T12:57:36.911Z,71.00
2023-05-25T13:00:25.593Z,69.50
2023-05-25T13:03:12.784Z,71.90
2023-05-25T13:06:03.743Z,71.40
2023-05-25T13:09:18.672Z,69.40
2023-05-25T13:12:06.604Z,70.00
2023-05-25T13:14:57.719Z,69.00
2023-05-25T13:17:45.704Z,70.90
2023-05-25T13:20:32.802Z,71.40
2023-05-25T13:23:20.271Z,68.00
2023-05-25T13:26:08.132Z,66.50
2023-05-25T13:28:55.561Z,67.00
2023-05-25T13:31:44.553Z,67.20
2023-05-25T13:34:31.915Z,67.30
2023-05-25T13:37:18.810Z,64.10
2023-05-25T13:40:06.929Z,64.80
2023-05-25T13:42:53.872Z,69.30
2023-05-25T13:45:41.133Z,75.70
2023-05-25T13:48:31.508Z,77.20
2023-05-25T13:51:18.984Z,67.00
2023-05-25T13:54:06.086Z,68.50
2023-05-25T13:56:53.238Z,71.40
2023-05-25T13:59:40.531Z,70.00
2023-05-25T14:05:18.661Z,99.00
2023-05-25T14:08:06.960Z,91.40
2023-05-25T14:10:54.167Z,91.20
2023-05-25T14:16:29.360Z,96.70
2023-05-25T14:19:17.302Z,91.10
2023-05-25T14:22:13.833Z,90.10
2023-05-25T14:25:01.565Z,89.20
2023-05-25T14:27:48.847Z,88.60
2023-05-25T14:30:35.772Z,85.20
2023-05-25T14:33:22.788Z,84.50
2023-05-25T14:36:09.996Z,82.90
2023-05-25T14:38:58.657Z,81.60
2023-05-25T14:41:46.073Z,80.70
2023-05-25T14:44:33.072Z,68.80
2023-05-25T14:47:20.928Z,64.00
2023-05-25T14:50:08.929Z,66.80
2023-05-25T14:52:55.812Z,65.00
2023-05-25T14:55:44.761Z,63.70
2023-05-25T14:58:33.012Z,63.50
2023-05-25T15:01:21.518Z,65.00
2023-05-25T15:04:09.719Z,66.50
2023-05-25T15:06:57.160Z,69.00
2023-05-25T15:09:45.446Z,63.30
2023-05-25T15:12:35.750Z,62.20
2023-05-25T15:15:22.669Z,60.90
2023-05-25T15:18:09.917Z,62.60
2023-05-25T15:20:58.094Z,61.90
2023-05-25T15:23:48.232Z,63.20
2023-05-25T15:26:35.182Z,63.10
2023-05-25T15:29:23.778Z,62.80
2023-05-25T15:32:13.271Z,63.50
2023-05-25T15:35:00.584Z,64.70
2023-05-25T15:37:48.100Z,66.00
2023-05-25T15:40:37.304Z,64.70
2023-05-25T15:43:24.499Z,64.90
2023-05-25T15:46:13.418Z,66.00
2023-05-25T15:49:00.396Z,66.40
2023-05-25T15:51:47.494Z,67.40
2023-05-25T15:54:34.360Z,65.90
2023-05-25T15:57:21.561Z,63.00
2023-05-25T16:00:09.717Z,62.60
2023-05-25T16:02:58.574Z,64.10
2023-05-25T16:05:45.802Z,63.40
2023-05-25T16:08:33.066Z,63.20
2023-05-25T16:11:20.404Z,63.00
2023-05-25T16:14:07.788Z,62.90
2023-05-25T16:16:55.048Z,63.50
2023-05-25T16:19:43.169Z,65.60
2023-05-25T16:22:30.227Z,71.40
2023-05-25T16:25:17.373Z,76.60
2023-05-25T16:28:04.351Z,77.40
2023-05-25T16:30:51.482Z,76.80
2023-05-25T16:33:39.385Z,75.90
2023-05-25T16:36:28.206Z,75.00
2023-05-25T16:39:15.183Z,75.90
2023-05-25T16:42:02.450Z,74.30
2023-05-25T16:44:49.510Z,73.50
2023-05-25T16:47:36.528Z,72.50
2023-05-25T16:50:23.293Z,72.30
2023-05-25T16:53:11.548Z,72.80
2023-05-25T16:55:58.426Z,71.50
2023-05-25T16:58:45.466Z,71.60
2023-05-25T17:01:32.865Z,72.20
2023-05-25T17:04:20.068Z,72.20
2023-05-25T17:07:07.589Z,72.10
2023-05-25T17:09:56.099Z,71.40
2023-05-25T17:12:43.276Z,73.00
2023-05-25T17:15:30.260Z,74.40
2023-05-25T17:18:17.461Z,74.00
2023-05-25T17:21:04.573Z,72.90
2023-05-25T17:23:51.568Z,72.20
2023-05-25T17:26:40.157Z,71.40
2023-05-25T17:29:27.383Z,72.10
2023-05-25T17:32:14.643Z,73.30
2023-05-25T17:35:02.081Z,75.60
2023-05-25T17:37:48.818Z,74.90
2023-05-25T17:40:35.622Z,75.00
2023-05-25T17:43:24.018Z,72.50
2023-05-25T17:46:11.542Z,73.50
2023-05-25T17:48:58.811Z,74.40
2023-05-25T17:51:46.001Z,81.30
2023-05-25T17:54:32.799Z,91.90
2023-05-25T17:57:19.698Z,93.30
2023-05-25T18:00:09.657Z,84.70
2023-05-25T18:02:59.648Z,86.40
2023-05-25T18:05:47.199Z,84.00
2023-05-25T18:08:34.169Z,85.30
2023-05-25T18:11:21.694Z,77.10
2023-05-25T18:14:08.918Z,79.90
2023-05-25T18:16:57.589Z,83.30
2023-05-25T18:19:44.756Z,99.30
2023-05-25T18:22:31.694Z,92.50
2023-05-25T18:25:18.819Z,84.80
2023-05-25T18:28:06.015Z,84.20
2023-05-25T18:30:52.713Z,81.30
2023-05-25T18:33:41.537Z,80.80
2023-05-25T18:36:28.632Z,79.50
2023-05-25T18:39:17.043Z,88.40
2023-05-25T18:44:58.129Z,79.80
2023-05-25T18:47:45.302Z,79.30
2023-05-25T18:50:33.602Z,81.00
2023-05-25T18:53:20.741Z,77.20
2023-05-25T18:56:08.196Z,77.00
2023-05-25T18:58:57.117Z,80.40
2023-05-25T19:01:44.689Z,82.60
2023-05-25T19:04:31.438Z,77.50
2023-05-25T19:07:20.465Z,72.80
2023-05-25T19:12:55.746Z,75.40
2023-05-25T19:15:42.822Z,77.80
2023-05-25T19:18:30.182Z,79.00
2023-05-25T19:21:17.326Z,78.80
2023-05-25T19:24:06.158Z,90.00
2023-05-25T19:26:53.288Z,89.80
2023-05-25T19:29:40.186Z,90.20
2023-05-25T19:32:27.306Z,94.30
2023-05-25T19:35:14.499Z,91.70
2023-05-25T19:38:02.374Z,91.20
2023-05-25T19:43:38.787Z,82.70
2023-05-25T19:46:25.937Z,89.30
2023-05-25T19:49:12.844Z,89.00
2023-05-25T19:52:00.230Z,92.50
2023-05-25T19:54:47.153Z,91.80
2023-05-25T19:57:35.850Z,93.90
2023-05-25T20:00:26.594Z,94.40
2023-05-25T20:03:16.207Z,92.50
2023-05-25T20:06:03.998Z,93.40
2023-05-25T20:08:51.213Z,95.80
2023-05-25T20:11:38.375Z,93.40
2023-05-25T20:14:27.504Z,93.40
2023-05-25T20:17:14.786Z,92.80
2023-05-25T20:20:01.801Z,93.20
2023-05-25T20:22:49.193Z,93.50
2023-05-25T20:25:36.890Z,93.80
2023-05-25T20:28:23.697Z,94.50
2023-05-25T20:31:12.104Z,94.80
2023-05-25T20:33:59.108Z,95.20
2023-05-25T20:36:46.569Z,92.20
2023-05-25T20:39:33.498Z,93.40
2023-05-25T20:42:20.312Z,94.00
2023-05-25T20:45:07.948Z,94.40
2023-05-25T20:48:04.126Z,94.30
2023-05-25T20:50:51.341Z,98.30
2023-05-25T20:53:38.540Z,99.00
2023-05-25T20:56:27.740Z,97.30
2023-05-25T20:59:23.716Z,96.60
2023-05-25T21:02:10.991Z,96.10
2023-05-25T21:04:59.471Z,95.80
2023-05-25T21:07:46.403Z,95.70
2023-05-25T21:10:33.187Z,90.80
2023-05-25T21:13:20.123Z,88.80
2023-05-25T21:16:07.664Z,86.50
2023-05-25T21:18:54.428Z,86.20
2023-05-25T21:21:42.646Z,86.80
2023-05-25T21:24:29.916Z,87.40
2023-05-25T21:27:17.927Z,87.50
2023-05-25T21:30:05.207Z,87.60
2023-05-25T21:32:52.794Z,87.80
2023-05-25T21:35:39.909Z,88.00
2023-05-25T21:38:28.347Z,88.40
2023-05-25T21:41:15.657Z,88.50
2023-05-25T21:44:02.918Z,89.10
2023-05-25T21:46:49.874Z,89.50
2023-05-25T21:49:37.008Z,90.80
2023-05-25T21:52:38.492Z,90.00
2023-05-25T21:55:26.847Z,92.00
2023-05-25T21:58:14.044Z,92.70
2023-05-25T22:01:01.133Z,93.40
2023-05-25T22:03:48.197Z,93.10
2023-05-25T22:06:35.152Z,93.00
2023-05-25T22:09:22.061Z,92.80
2023-05-25T22:12:12.177Z,92.90
2023-05-25T22:14:59.383Z,93.50
2023-05-25T22:17:46.590Z,93.90
2023-05-25T22:20:33.808Z,92.90
2023-05-25T22:23:20.844Z,92.70
2023-05-25T22:26:07.996Z,92.60
2023-05-25T22:28:56.298Z,92.90
2023-05-25T22:31:44.088Z,93.80
2023-05-25T22:34:31.454Z,94.30
2023-05-25T22:37:18.814Z,93.60
2023-05-25T22:40:06.837Z,93.10
2023-05-25T22:42:54.466Z,93.50
2023-05-25T22:45:43.577Z,93.10
2023-05-25T22:48:31.013Z,93.20
2023-05-25T22:51:18.242Z,93.20
2023-05-25T22:54:05.707Z,93.40
2023-05-25T22:56:53.067Z,93.80
2023-05-25T22:59:40.473Z,93.80
2023-05-25T23:02:28.923Z,93.90
2023-05-25T23:05:16.093Z,94.00
2023-05-25T23:08:03.998Z,94.00
2023-05-25T23:10:50.913Z,94.10
2023-05-25T23:13:37.934Z,94.30
2023-05-25T23:16:26.918Z,94.10
2023-05-25T23:19:15.159Z,94.00
2023-05-25T23:22:02.274Z,92.40
2023-05-25T23:24:49.430Z,92.40
2023-05-25T23:27:36.714Z,92.40
2023-05-25T23:30:24.067Z,92.50
2023-05-25T23:33:11.842Z,92.60
2023-05-25T23:36:00.864Z,92.70
2023-05-25T23:38:48.283Z,92.70
2023-05-25T23:41:35.734Z,92.70
2023-05-25T23:44:22.996Z,92.80
2023-05-25T23:47:10.807Z,92.90
2023-05-25T23:49:58.634Z,93.00
2023-05-25T23:52:47.568Z,93.50
2023-05-25T23:55:34.650Z,95.10
2023-05-25T23:58:21.632Z,96.30
